Fort Myers, Florida
Current Conditions -  °F | °C
As of 9:18 PM on Saturday 22 Nov 2014 (Local Time) from KFMY Reporting Station
Overcast Overcast  
Wind Chill: 23°   Ceiling: 1200
Heat Index: 23°   Visibility: 10mi
Dew Point: 21°   Wind: 10mph
Humidity: 90%   Direction: 100°E
Pressure: 30.07"   Gusts: NA
Location:  26.64°N, 81.87°W
Report Text: KFMY 230218Z 10009KT 10SM BKN012 BKN019 OVC029 23/21 A3007 RMK AO2 T02280211
Loading
Personal Weather Stations






























Interactive Weather Map New forecast layout! Learn more

10-Day Weather Forecast

Advertisements
Track Severe Weather on mobile